createdAt,value
2023-05-05T00:02:09.368Z,15.14
2023-05-05T00:04:36.809Z,15.10
2023-05-05T00:07:03.897Z,15.09
2023-05-05T00:09:31.136Z,15.07
2023-05-05T00:11:58.226Z,15.04
2023-05-05T00:14:25.516Z,15.03
2023-05-05T00:16:52.673Z,15.01
2023-05-05T00:19:19.900Z,14.98
2023-05-05T00:21:46.977Z,14.98
2023-05-05T00:24:14.066Z,14.99
2023-05-05T00:26:41.177Z,14.99
2023-05-05T00:29:11.476Z,14.99
2023-05-05T00:31:38.840Z,14.98
2023-05-05T00:34:06.516Z,14.97
2023-05-05T00:36:33.730Z,14.99
2023-05-05T00:39:01.273Z,14.97
2023-05-05T00:41:28.331Z,14.96
2023-05-05T00:43:55.526Z,14.92
2023-05-05T00:46:27.259Z,14.92
2023-05-05T00:48:54.946Z,14.91
2023-05-05T00:51:24.081Z,14.87
2023-05-05T00:53:51.825Z,14.86
2023-05-05T00:56:21.964Z,14.85
2023-05-05T00:58:49.871Z,14.86
2023-05-05T01:01:18.222Z,14.89
2023-05-05T01:03:45.734Z,14.87
2023-05-05T01:06:18.498Z,14.86
2023-05-05T01:09:02.186Z,14.84
2023-05-05T01:11:56.796Z,14.88
2023-05-05T01:14:36.092Z,14.90
2023-05-05T01:17:26.370Z,14.89
2023-05-05T01:20:06.028Z,14.82
2023-05-05T01:22:45.963Z,14.80
2023-05-05T01:25:44.947Z,14.77
2023-05-05T01:28:24.196Z,14.75
2023-05-05T01:31:23.714Z,14.74
2023-05-05T01:33:58.522Z,14.72
2023-05-05T01:36:32.966Z,14.72
2023-05-05T01:39:02.598Z,14.71
2023-05-05T01:41:41.268Z,14.71
2023-05-05T01:44:11.272Z,14.69
2023-05-05T01:46:38.564Z,14.64
2023-05-05T01:49:10.179Z,14.63
2023-05-05T01:51:39.111Z,14.59
2023-05-05T01:54:08.682Z,14.57
2023-05-05T01:56:39.481Z,14.54
2023-05-05T01:59:07.549Z,14.52
2023-05-05T02:01:39.681Z,14.51
2023-05-05T02:04:10.045Z,14.49
2023-05-05T02:06:39.603Z,14.43
2023-05-05T02:09:11.856Z,14.44
2023-05-05T02:11:40.853Z,14.42
2023-05-05T02:14:09.484Z,14.41
2023-05-05T02:16:38.802Z,14.40
2023-05-05T02:19:06.456Z,14.40
2023-05-05T02:21:34.534Z,14.38
2023-05-05T02:24:02.358Z,14.37
2023-05-05T02:26:34.019Z,14.37
2023-05-05T02:29:17.020Z,14.40
2023-05-05T02:31:53.583Z,14.43
2023-05-05T02:34:27.757Z,14.44
2023-05-05T02:36:58.893Z,14.42
2023-05-05T02:39:46.136Z,14.42
2023-05-05T02:42:22.036Z,14.41
2023-05-05T02:44:53.984Z,14.36
2023-05-05T02:47:21.548Z,14.33
2023-05-05T02:49:51.592Z,14.35
2023-05-05T02:52:18.814Z,14.35
2023-05-05T02:54:46.623Z,14.32
2023-05-05T02:57:20.916Z,14.28
2023-05-05T03:00:20.943Z,14.23
2023-05-05T03:03:16.614Z,14.23
2023-05-05T03:06:05.579Z,14.20
2023-05-05T03:08:44.401Z,14.16
2023-05-05T03:11:21.857Z,14.16
2023-05-05T03:13:55.456Z,14.15
2023-05-05T03:16:26.654Z,14.12
2023-05-05T03:18:55.667Z,14.12
2023-05-05T03:21:23.888Z,14.12
2023-05-05T03:23:51.208Z,14.08
2023-05-05T03:26:20.845Z,14.05
2023-05-05T03:28:48.115Z,14.04
2023-05-05T03:31:28.532Z,14.06
2023-05-05T03:33:58.891Z,14.08
2023-05-05T03:36:30.532Z,14.08
2023-05-05T03:38:59.012Z,14.05
2023-05-05T03:41:30.296Z,14.01
2023-05-05T03:43:57.472Z,14.01
2023-05-05T03:46:25.385Z,14.01
2023-05-05T03:48:57.216Z,14.04
2023-05-05T03:51:27.028Z,14.06
2023-05-05T03:53:54.804Z,14.04
2023-05-05T03:56:22.606Z,14.05
2023-05-05T03:58:51.855Z,14.07
2023-05-05T04:01:18.964Z,14.06
2023-05-05T04:03:46.350Z,14.13
2023-05-05T04:06:13.542Z,14.18
2023-05-05T04:08:41.635Z,14.19
2023-05-05T04:11:08.729Z,14.20
2023-05-05T04:13:36.872Z,14.18
2023-05-05T04:16:04.398Z,14.17
2023-05-05T04:18:31.963Z,14.16
2023-05-05T04:20:59.558Z,14.17
2023-05-05T04:23:26.843Z,14.19
2023-05-05T04:25:54.117Z,14.24
2023-05-05T04:28:22.193Z,14.26
2023-05-05T04:30:49.687Z,14.33
2023-05-05T04:33:16.869Z,14.34
2023-05-05T04:35:45.127Z,14.39
2023-05-05T04:38:12.848Z,14.48
2023-05-05T04:40:43.788Z,14.56
2023-05-05T04:43:11.576Z,14.61
2023-05-05T04:45:39.090Z,14.68
2023-05-05T04:48:06.832Z,14.77
2023-05-05T04:50:34.163Z,14.87
2023-05-05T04:53:01.168Z,14.94
2023-05-05T04:55:28.670Z,15.04
2023-05-05T04:57:55.842Z,15.47
2023-05-05T05:00:24.301Z,16.20
2023-05-05T05:02:52.739Z,17.18
2023-05-05T05:05:20.048Z,18.74
2023-05-05T05:07:47.268Z,20.33
2023-05-05T05:10:14.973Z,21.55
2023-05-05T05:12:42.223Z,22.66
2023-05-05T05:15:10.190Z,23.71
2023-05-05T05:17:37.441Z,24.50
2023-05-05T05:20:06.406Z,24.66
2023-05-05T05:22:35.061Z,24.03
2023-05-05T05:25:03.241Z,23.41
2023-05-05T05:27:30.783Z,23.05
2023-05-05T05:29:58.411Z,22.63
2023-05-05T05:32:26.554Z,23.09
2023-05-05T05:34:53.795Z,24.38
2023-05-05T05:37:21.658Z,25.51
2023-05-05T05:39:52.446Z,26.44
2023-05-05T05:42:21.368Z,26.89
2023-05-05T05:44:48.928Z,27.56
2023-05-05T05:47:16.199Z,27.75
2023-05-05T05:49:43.500Z,28.32
2023-05-05T05:52:11.269Z,28.45
2023-05-05T05:54:39.327Z,26.93
2023-05-05T05:57:07.538Z,26.59
2023-05-05T05:59:34.639Z,27.23
2023-05-05T06:02:02.270Z,27.49
2023-05-05T06:04:31.094Z,27.59
2023-05-05T06:06:59.093Z,27.43
2023-05-05T06:09:26.297Z,27.40
2023-05-05T06:11:54.826Z,27.79
2023-05-05T06:14:21.858Z,27.69
2023-05-05T06:16:49.107Z,27.46
2023-05-05T06:19:19.608Z,26.95
2023-05-05T06:21:46.848Z,25.46
2023-05-05T06:24:14.016Z,26.30
2023-05-05T06:26:41.908Z,26.13
2023-05-05T06:29:10.509Z,25.97
2023-05-05T06:31:39.385Z,25.59
2023-05-05T06:34:06.514Z,26.24
2023-05-05T06:36:33.617Z,26.51
2023-05-05T06:39:00.730Z,26.19
2023-05-05T06:41:28.200Z,26.08
2023-05-05T06:43:55.255Z,25.99
2023-05-05T06:46:22.428Z,26.01
2023-05-05T06:48:49.619Z,25.59
2023-05-05T06:51:16.824Z,25.66
2023-05-05T06:53:43.899Z,25.46
2023-05-05T06:56:11.701Z,25.09
2023-05-05T06:58:38.720Z,23.88
2023-05-05T07:01:06.061Z,24.78
2023-05-05T07:03:33.209Z,25.30
2023-05-05T07:06:00.564Z,25.12
2023-05-05T07:08:27.607Z,25.43
2023-05-05T07:10:54.679Z,25.34
2023-05-05T07:13:21.799Z,25.33
2023-05-05T07:15:49.728Z,25.18
2023-05-05T07:18:17.354Z,24.95
2023-05-05T07:20:44.851Z,24.64
2023-05-05T07:23:12.010Z,24.12
2023-05-05T07:25:39.310Z,24.36
2023-05-05T07:28:06.704Z,24.17
2023-05-05T07:30:33.775Z,23.85
2023-05-05T07:33:00.814Z,24.79
2023-05-05T07:35:28.026Z,25.18
2023-05-05T07:37:55.026Z,25.21
2023-05-05T07:40:22.357Z,24.60
2023-05-05T07:42:49.387Z,24.10
2023-05-05T07:45:16.480Z,24.66
2023-05-05T07:47:43.628Z,24.87
2023-05-05T07:50:11.507Z,24.80
2023-05-05T07:52:48.446Z,25.60
2023-05-05T07:55:21.193Z,26.16
2023-05-05T07:57:49.784Z,26.80
2023-05-05T08:00:19.629Z,25.31
2023-05-05T08:02:48.089Z,26.25
2023-05-05T08:05:15.537Z,26.70
2023-05-05T08:07:42.853Z,26.85
2023-05-05T08:10:12.172Z,26.77
2023-05-05T08:12:41.581Z,26.50
2023-05-05T08:15:09.175Z,27.36
2023-05-05T08:17:56.311Z,28.02
2023-05-05T08:20:28.624Z,28.22
2023-05-05T08:22:55.830Z,28.04
2023-05-05T08:25:22.983Z,27.78
2023-05-05T08:27:50.070Z,27.81
2023-05-05T08:30:20.989Z,27.84
2023-05-05T08:32:48.443Z,28.06
2023-05-05T08:35:15.494Z,27.92
2023-05-05T08:37:42.714Z,27.89
2023-05-05T08:40:14.307Z,27.42
2023-05-05T08:42:42.299Z,26.79
2023-05-05T08:45:11.109Z,26.54
2023-05-05T08:47:39.450Z,27.10
2023-05-05T08:50:10.265Z,26.95
2023-05-05T08:52:44.559Z,27.55
2023-05-05T08:55:27.473Z,26.48
2023-05-05T08:58:01.231Z,26.29
2023-05-05T09:00:28.814Z,25.94
2023-05-05T09:03:01.634Z,25.47
2023-05-05T09:05:29.268Z,24.37
2023-05-05T09:07:56.559Z,23.06
2023-05-05T09:10:24.922Z,22.13
2023-05-05T09:12:52.166Z,21.23
2023-05-05T09:15:19.309Z,20.95
2023-05-05T09:17:47.244Z,20.84
2023-05-05T09:20:15.228Z,20.74
2023-05-05T09:22:47.374Z,20.62
2023-05-05T09:25:16.488Z,20.63
2023-05-05T09:27:50.345Z,20.48
2023-05-05T09:30:25.100Z,20.47
2023-05-05T09:32:54.826Z,20.46
2023-05-05T09:35:23.412Z,20.69
2023-05-05T09:37:50.630Z,20.83
2023-05-05T09:40:19.527Z,20.84
2023-05-05T09:42:47.550Z,20.78
2023-05-05T09:45:17.820Z,20.69
2023-05-05T09:47:49.473Z,20.59
2023-05-05T09:50:19.026Z,20.75
2023-05-05T09:52:56.443Z,20.65
2023-05-05T09:55:24.292Z,20.49
2023-05-05T09:57:51.975Z,20.55
2023-05-05T10:00:19.596Z,20.75
2023-05-05T10:02:47.396Z,21.14
2023-05-05T10:05:19.079Z,21.47
2023-05-05T10:07:47.892Z,21.72
2023-05-05T10:10:17.374Z,21.86
2023-05-05T10:12:47.674Z,21.90
2023-05-05T10:15:16.233Z,22.03
2023-05-05T10:18:05.128Z,21.99
2023-05-05T10:20:38.344Z,21.85
2023-05-05T10:23:08.448Z,21.92
2023-05-05T10:25:42.725Z,21.94
2023-05-05T10:28:16.202Z,22.13
2023-05-05T10:30:48.922Z,22.40
2023-05-05T10:36:01.464Z,22.94
2023-05-05T10:38:31.293Z,22.81
2023-05-05T10:41:04.530Z,22.77
2023-05-05T10:43:32.217Z,22.75
2023-05-05T10:46:00.036Z,22.87
2023-05-05T10:48:46.216Z,23.19
2023-05-05T10:51:42.176Z,23.57
2023-05-05T10:54:23.451Z,22.98
2023-05-05T10:56:51.893Z,23.02
2023-05-05T10:59:52.192Z,22.81
2023-05-05T11:02:20.786Z,22.65
2023-05-05T11:05:21.622Z,22.67
2023-05-05T11:07:51.038Z,22.67
2023-05-05T11:10:23.900Z,22.65
2023-05-05T11:13:03.187Z,22.53
2023-05-05T11:15:30.625Z,22.43
2023-05-05T11:17:59.664Z,22.10
2023-05-05T11:20:36.993Z,22.05
2023-05-05T11:23:04.654Z,21.89
2023-05-05T11:25:35.538Z,21.65
2023-05-05T11:28:14.550Z,21.37
2023-05-05T11:30:57.930Z,21.17
2023-05-05T11:33:31.085Z,21.05
2023-05-05T11:36:07.331Z,21.33
2023-05-05T11:39:05.857Z,21.27
2023-05-05T11:41:33.064Z,21.41
2023-05-05T11:44:35.996Z,21.37
2023-05-05T11:47:06.171Z,21.47
2023-05-05T11:49:35.172Z,21.35
2023-05-05T11:52:03.407Z,21.26
2023-05-05T11:54:31.601Z,21.04
2023-05-05T11:57:02.202Z,21.05
2023-05-05T11:59:29.450Z,21.18
2023-05-05T12:01:56.848Z,21.13
2023-05-05T12:04:24.469Z,21.15
2023-05-05T12:06:51.818Z,20.98
2023-05-05T12:09:24.145Z,21.02
2023-05-05T12:11:59.844Z,21.21
2023-05-05T12:14:27.830Z,21.16
2023-05-05T12:17:11.141Z,21.12
2023-05-05T12:19:45.520Z,20.96
2023-05-05T12:22:22.409Z,20.89
2023-05-05T12:25:01.522Z,20.87
2023-05-05T12:27:29.139Z,20.96
2023-05-05T12:29:58.266Z,21.06
2023-05-05T12:32:28.189Z,21.14
2023-05-05T12:34:57.644Z,21.11
2023-05-05T12:37:26.558Z,21.10
2023-05-05T12:39:56.862Z,21.22
2023-05-05T12:42:24.360Z,21.29
2023-05-05T12:44:51.649Z,21.05
2023-05-05T12:47:32.827Z,21.08
2023-05-05T12:50:00.930Z,21.44
2023-05-05T12:52:45.285Z,21.57
2023-05-05T12:55:13.278Z,21.54
2023-05-05T12:58:00.666Z,21.58
2023-05-05T13:00:29.433Z,21.51
2023-05-05T13:02:57.086Z,21.30
2023-05-05T13:05:36.516Z,21.35
2023-05-05T13:08:04.048Z,21.46
2023-05-05T13:10:31.635Z,21.52
2023-05-05T13:12:59.070Z,21.44
2023-05-05T13:15:26.422Z,21.18
2023-05-05T13:18:03.107Z,21.28
2023-05-05T13:20:30.334Z,21.47
2023-05-05T13:22:57.651Z,21.60
2023-05-05T13:25:24.697Z,21.48
2023-05-05T13:27:52.207Z,21.26
2023-05-05T13:30:20.777Z,21.19
2023-05-05T13:32:48.163Z,21.42
2023-05-05T13:35:16.565Z,21.52
2023-05-05T13:37:44.593Z,21.79
2023-05-05T13:40:13.546Z,21.81
2023-05-05T13:42:40.719Z,21.94
2023-05-05T13:45:08.508Z,21.90
2023-05-05T13:47:35.827Z,21.72
2023-05-05T13:50:02.968Z,21.08
2023-05-05T13:52:31.805Z,20.87
2023-05-05T13:55:01.174Z,20.67
2023-05-05T13:57:28.413Z,20.40
2023-05-05T13:59:55.602Z,20.29
2023-05-05T14:02:22.837Z,20.22
2023-05-05T14:04:49.953Z,20.47
2023-05-05T14:07:17.129Z,20.84
2023-05-05T14:09:44.264Z,21.07
2023-05-05T14:12:11.288Z,21.03
2023-05-05T14:14:38.460Z,21.09
2023-05-05T14:17:06.012Z,21.15
2023-05-05T14:19:33.607Z,21.01
2023-05-05T14:22:00.721Z,20.52
2023-05-05T14:24:27.740Z,20.22
2023-05-05T14:26:54.845Z,20.27
2023-05-05T14:29:21.970Z,20.34
2023-05-05T14:31:48.974Z,20.40
2023-05-05T14:34:16.162Z,20.31
2023-05-05T14:36:43.158Z,20.27
2023-05-05T14:39:10.293Z,20.11
2023-05-05T14:41:37.423Z,20.03
2023-05-05T14:44:04.605Z,19.81
2023-05-05T14:46:32.217Z,19.79
2023-05-05T14:48:59.408Z,19.74
2023-05-05T14:51:26.739Z,19.79
2023-05-05T14:53:53.742Z,20.00
2023-05-05T14:56:22.899Z,20.05
2023-05-05T14:58:50.225Z,19.96
2023-05-05T15:01:17.489Z,19.88
2023-05-05T15:03:44.734Z,19.83
2023-05-05T15:06:11.844Z,19.89
2023-05-05T15:08:41.705Z,19.95
2023-05-05T15:11:08.872Z,20.03
2023-05-05T15:13:38.653Z,20.01
2023-05-05T15:16:06.902Z,20.16
2023-05-05T15:18:34.424Z,20.27
2023-05-05T15:21:01.652Z,20.28
2023-05-05T15:23:30.225Z,20.19
2023-05-05T15:25:57.326Z,20.19
2023-05-05T15:28:24.460Z,20.00
2023-05-05T15:30:51.509Z,19.86
2023-05-05T15:33:18.731Z,19.70
2023-05-05T15:35:46.078Z,19.52
2023-05-05T15:38:13.195Z,19.48
2023-05-05T15:40:41.421Z,19.42
2023-05-05T15:43:08.854Z,19.40
2023-05-05T15:45:36.586Z,19.43
2023-05-05T15:48:03.723Z,19.44
2023-05-05T15:50:31.143Z,19.38
2023-05-05T15:52:58.996Z,19.35
2023-05-05T15:55:26.547Z,19.38
2023-05-05T15:57:54.259Z,19.43
2023-05-05T16:00:21.808Z,19.44
2023-05-05T16:02:48.910Z,19.57
2023-05-05T16:05:16.135Z,19.56
2023-05-05T16:07:43.204Z,19.59
2023-05-05T16:10:10.845Z,19.61
2023-05-05T16:12:38.413Z,19.54
2023-05-05T16:15:06.371Z,19.50
2023-05-05T16:17:33.581Z,19.56
2023-05-05T16:20:00.870Z,19.55
2023-05-05T16:22:27.908Z,19.49
2023-05-05T16:24:55.083Z,19.38
2023-05-05T16:27:22.398Z,19.29
2023-05-05T16:29:49.412Z,19.36
2023-05-05T16:32:16.584Z,19.44
2023-05-05T16:34:43.657Z,19.43
2023-05-05T16:37:11.065Z,19.45
2023-05-05T16:39:40.432Z,19.39
2023-05-05T16:42:07.586Z,19.44
2023-05-05T16:44:34.842Z,19.36
2023-05-05T16:47:01.851Z,19.26
2023-05-05T16:49:29.015Z,19.15
2023-05-05T16:51:57.387Z,19.06
2023-05-05T16:54:24.738Z,19.00
2023-05-05T16:56:52.476Z,19.01
2023-05-05T16:59:19.631Z,18.92
2023-05-05T17:01:47.089Z,18.89
2023-05-05T17:04:14.349Z,18.89
2023-05-05T17:06:41.601Z,18.85
2023-05-05T17:09:08.879Z,18.85
2023-05-05T17:11:36.301Z,18.85
2023-05-05T17:14:03.457Z,18.82
2023-05-05T17:16:31.344Z,18.78
2023-05-05T17:18:58.581Z,18.79
2023-05-05T17:21:27.051Z,18.76
2023-05-05T17:23:54.223Z,18.72
2023-05-05T17:26:21.384Z,18.71
2023-05-05T17:28:48.466Z,18.73
2023-05-05T17:31:16.202Z,18.74
2023-05-05T17:33:43.313Z,18.76
2023-05-05T17:36:10.694Z,18.76
2023-05-05T17:38:37.925Z,18.80
2023-05-05T17:41:05.062Z,18.84
2023-05-05T17:43:32.295Z,18.86
2023-05-05T17:45:59.393Z,18.88
2023-05-05T17:48:26.821Z,18.90
2023-05-05T17:50:54.058Z,18.89
2023-05-05T17:53:21.653Z,18.82
2023-05-05T17:55:48.689Z,18.74
2023-05-05T17:58:15.829Z,18.69
2023-05-05T18:00:42.830Z,18.64
2023-05-05T18:03:10.180Z,18.63
2023-05-05T18:05:37.495Z,18.63
2023-05-05T18:08:04.836Z,18.60
2023-05-05T18:10:32.178Z,18.58
2023-05-05T18:12:59.366Z,18.58
2023-05-05T18:15:26.639Z,18.55
2023-05-05T18:17:54.104Z,18.51
2023-05-05T18:20:21.235Z,18.48
2023-05-05T18:22:49.112Z,18.47
2023-05-05T18:25:16.303Z,18.49
2023-05-05T18:27:44.122Z,18.49
2023-05-05T18:30:11.841Z,18.44
2023-05-05T18:32:39.049Z,18.38
2023-05-05T18:35:07.415Z,18.34
2023-05-05T18:37:34.841Z,18.28
2023-05-05T18:40:01.901Z,18.18
2023-05-05T18:42:29.131Z,18.08
2023-05-05T18:44:56.201Z,18.05
2023-05-05T18:47:23.728Z,17.99
2023-05-05T18:49:50.909Z,17.92
2023-05-05T18:52:17.957Z,17.86
2023-05-05T18:54:45.168Z,17.80
2023-05-05T18:57:12.322Z,17.74
2023-05-05T18:59:39.358Z,17.75
2023-05-05T19:02:08.141Z,17.74
2023-05-05T19:04:38.193Z,17.71
2023-05-05T19:07:05.514Z,17.71
2023-05-05T19:09:32.920Z,17.62
2023-05-05T19:12:00.167Z,17.62
2023-05-05T19:14:27.354Z,17.54
2023-05-05T19:16:56.135Z,17.41
2023-05-05T19:19:23.981Z,17.34
2023-05-05T19:21:52.244Z,17.33
2023-05-05T19:24:19.543Z,17.32
2023-05-05T19:26:46.904Z,17.42
2023-05-05T19:29:14.286Z,17.48
2023-05-05T19:31:41.846Z,17.52
2023-05-05T19:34:09.095Z,17.64
2023-05-05T19:36:37.384Z,17.70
2023-05-05T19:39:05.225Z,17.72
2023-05-05T19:41:35.299Z,17.67
2023-05-05T19:44:03.209Z,17.62
2023-05-05T19:46:30.503Z,17.58
2023-05-05T19:48:58.109Z,17.60
2023-05-05T19:51:25.780Z,17.61
2023-05-05T19:53:53.310Z,17.61
2023-05-05T19:56:22.210Z,17.62
2023-05-05T19:58:57.853Z,17.60
2023-05-05T20:01:26.072Z,17.59
2023-05-05T20:03:54.941Z,17.59
2023-05-05T20:06:23.207Z,17.61
2023-05-05T20:08:50.892Z,17.62
2023-05-05T20:11:18.377Z,17.63
2023-05-05T20:13:45.806Z,17.62
2023-05-05T20:16:13.886Z,17.59
2023-05-05T20:18:41.102Z,17.56
2023-05-05T20:21:08.309Z,17.51
2023-05-05T20:23:35.645Z,17.46
2023-05-05T20:26:02.831Z,17.45
2023-05-05T20:28:31.889Z,17.47
2023-05-05T20:31:00.902Z,17.41
2023-05-05T20:33:29.231Z,17.32
2023-05-05T20:35:56.818Z,17.28
2023-05-05T20:38:24.258Z,17.21
2023-05-05T20:40:52.534Z,17.18
2023-05-05T20:43:19.859Z,17.20
2023-05-05T20:45:47.304Z,17.21
2023-05-05T20:48:14.507Z,17.18
2023-05-05T20:50:43.231Z,17.13
2023-05-05T20:53:13.907Z,17.09
2023-05-05T20:55:41.602Z,17.07
2023-05-05T20:58:08.734Z,17.05
2023-05-05T21:00:36.245Z,17.07
2023-05-05T21:03:04.452Z,17.10
2023-05-05T21:05:31.837Z,17.14
2023-05-05T21:08:00.795Z,17.18
2023-05-05T21:10:33.189Z,17.18
2023-05-05T21:13:01.995Z,17.18
2023-05-05T21:15:29.468Z,17.18
2023-05-05T21:17:57.346Z,17.18
2023-05-05T21:20:24.583Z,17.21
2023-05-05T21:22:51.891Z,17.21
2023-05-05T21:25:21.108Z,17.18
2023-05-05T21:27:49.119Z,17.15
2023-05-05T21:30:17.308Z,17.13
2023-05-05T21:32:45.247Z,17.13
2023-05-05T21:35:12.526Z,17.15
2023-05-05T21:37:40.306Z,17.13
2023-05-05T21:40:13.773Z,17.13
2023-05-05T21:42:42.548Z,17.08
2023-05-05T21:45:11.765Z,17.05
2023-05-05T21:47:39.103Z,17.02
2023-05-05T21:50:07.034Z,16.99
2023-05-05T21:52:34.427Z,16.97
2023-05-05T21:55:01.568Z,16.97
2023-05-05T21:57:28.694Z,16.95
2023-05-05T21:59:55.922Z,16.95
2023-05-05T22:02:23.427Z,16.96
2023-05-05T22:04:53.744Z,16.95
2023-05-05T22:07:21.201Z,16.94
2023-05-05T22:09:48.357Z,16.93
2023-05-05T22:12:15.751Z,16.93
2023-05-05T22:14:42.790Z,16.92
2023-05-05T22:17:09.950Z,16.91
2023-05-05T22:19:36.990Z,16.91
2023-05-05T22:22:04.145Z,16.87
2023-05-05T22:24:31.246Z,16.83
2023-05-05T22:26:58.489Z,16.80
2023-05-05T22:29:25.732Z,16.74
2023-05-05T22:31:52.927Z,16.67
2023-05-05T22:34:22.169Z,16.66
2023-05-05T22:36:50.043Z,16.67
2023-05-05T22:39:18.727Z,16.63
2023-05-05T22:41:46.279Z,16.60
2023-05-05T22:44:13.409Z,16.58
2023-05-05T22:46:41.073Z,16.52
2023-05-05T22:49:08.886Z,16.52
2023-05-05T22:51:36.003Z,16.49
2023-05-05T22:54:03.337Z,16.49
2023-05-05T22:56:30.383Z,16.48
2023-05-05T22:58:57.642Z,16.48
2023-05-05T23:01:24.749Z,16.48
2023-05-05T23:03:52.022Z,16.46
2023-05-05T23:06:19.165Z,16.46
2023-05-05T23:08:46.383Z,16.42
2023-05-05T23:11:13.594Z,16.40
2023-05-05T23:13:40.818Z,16.40
2023-05-05T23:16:08.586Z,16.40
2023-05-05T23:18:36.505Z,16.38
2023-05-05T23:21:03.923Z,16.31
2023-05-05T23:23:32.447Z,16.29
2023-05-05T23:25:59.507Z,16.30
2023-05-05T23:28:26.694Z,16.27
2023-05-05T23:30:53.786Z,16.25
2023-05-05T23:33:20.976Z,16.22
2023-05-05T23:35:48.188Z,16.18
2023-05-05T23:38:15.348Z,16.11
2023-05-05T23:40:42.454Z,16.03
2023-05-05T23:43:09.846Z,16.02
2023-05-05T23:45:36.888Z,16.02
2023-05-05T23:48:04.365Z,16.03
2023-05-05T23:50:31.474Z,16.03
2023-05-05T23:52:58.914Z,16.03
2023-05-05T23:55:26.148Z,16.03
2023-05-05T23:57:53.519Z,16.04
